UAL1328 KPDX-KLAX
Flight info
| Callsign | UAL1328 |
|---|---|
| Flight time | 2h 2m |
| Altitude | 41000 |
| Route | HRMNS6 HYJOE DCT JAGWA DCT BURGL IRNMN2 |
| Aircraft | B77L/H-SDE1E2E3FGHIJ2J3J4J5M1RWXY/LB1D1 |
Departure
| Time | 2026-04-21 00:32 |
|---|---|
| Airport | Portland International Airport (KPDX) |
Arrival
| Time | 2026-04-21 02:34 |
|---|---|
| Airport | Los Angeles International Airport (KLAX) |
| Time | Latitude | Longitude | Altitude | Speed | Heading |
|---|---|---|---|---|---|
| 2026-04-21 00:01 | 45.58019 | -122.61445 | 34 ft | 0 kts | 134° |
| 2026-04-21 00:15 | 45.58020 | -122.61447 | 43 ft | 2 kts | 134° |
| 2026-04-21 00:15 | 45.58029 | -122.61466 | 33 ft | 2 kts | 83° |
| 2026-04-21 00:16 | 45.58025 | -122.61488 | 32 ft | 2 kts | 47° |
| 2026-04-21 00:16 | 45.58024 | -122.61489 | 31 ft | 0 kts | 44° |
| 2026-04-21 00:19 | 45.58072 | -122.61438 | 33 ft | 7 kts | 15° |
| 2026-04-21 00:19 | 45.58115 | -122.61476 | 32 ft | 8 kts | 316° |
| 2026-04-21 00:19 | 45.58118 | -122.61481 | 32 ft | 0 kts | 316° |
| 2026-04-21 00:21 | 45.58134 | -122.61503 | 32 ft | 13 kts | 315° |
| 2026-04-21 00:21 | 45.58229 | -122.61478 | 34 ft | 16 kts | 48° |
| 2026-04-21 00:22 | 45.58310 | -122.61366 | 36 ft | 16 kts | 43° |
| 2026-04-21 00:22 | 45.58390 | -122.61254 | 37 ft | 16 kts | 45° |
| 2026-04-21 00:22 | 45.58470 | -122.61141 | 37 ft | 16 kts | 45° |
| 2026-04-21 00:22 | 45.58550 | -122.61026 | 35 ft | 16 kts | 45° |
| 2026-04-21 00:23 | 45.58629 | -122.60913 | 34 ft | 16 kts | 45° |
| 2026-04-21 00:23 | 45.58709 | -122.60799 | 33 ft | 16 kts | 44° |
| 2026-04-21 00:23 | 45.58787 | -122.60687 | 32 ft | 13 kts | 45° |
| 2026-04-21 00:23 | 45.58802 | -122.60666 | 32 ft | 0 kts | 45° |
| 2026-04-21 00:24 | 45.58834 | -122.60620 | 34 ft | 18 kts | 45° |
| 2026-04-21 00:25 | 45.58924 | -122.60490 | 36 ft | 17 kts | 45° |
| 2026-04-21 00:25 | 45.58933 | -122.60332 | 36 ft | 17 kts | 117° |
| 2026-04-21 00:25 | 45.58875 | -122.60181 | 39 ft | 17 kts | 119° |
| 2026-04-21 00:25 | 45.58815 | -122.60030 | 40 ft | 17 kts | 119° |
| 2026-04-21 00:26 | 45.58776 | -122.59930 | 39 ft | 17 kts | 118° |
| 2026-04-21 00:26 | 45.58717 | -122.59777 | 42 ft | 17 kts | 119° |
| 2026-04-21 00:26 | 45.58660 | -122.59627 | 40 ft | 17 kts | 119° |
| 2026-04-21 00:26 | 45.58600 | -122.59477 | 39 ft | 17 kts | 119° |
| 2026-04-21 00:27 | 45.58542 | -122.59325 | 36 ft | 17 kts | 118° |
| 2026-04-21 00:27 | 45.58482 | -122.59174 | 36 ft | 17 kts | 120° |
| 2026-04-21 00:27 | 45.58424 | -122.59023 | 35 ft | 17 kts | 118° |
| 2026-04-21 00:27 | 45.58365 | -122.58872 | 37 ft | 17 kts | 119° |
| 2026-04-21 00:28 | 45.58305 | -122.58722 | 34 ft | 17 kts | 119° |
| 2026-04-21 00:28 | 45.58247 | -122.58570 | 35 ft | 17 kts | 119° |
| 2026-04-21 00:28 | 45.58190 | -122.58424 | 35 ft | 13 kts | 120° |
| 2026-04-21 00:28 | 45.58167 | -122.58386 | 35 ft | 0 kts | 140° |
| 2026-04-21 00:29 | 45.58166 | -122.58386 | 35 ft | 1 kts | 140° |
| 2026-04-21 00:29 | 45.58093 | -122.58394 | 36 ft | 14 kts | 229° |
| 2026-04-21 00:29 | 45.58095 | -122.58503 | 37 ft | 7 kts | 296° |
| 2026-04-21 00:29 | 45.58097 | -122.58507 | 37 ft | 0 kts | 296° |
| 2026-04-21 00:31 | 45.58233 | -122.58861 | 38 ft | 86 kts | 299° |
| 2026-04-21 00:31 | 45.58649 | -122.59941 | 43 ft | 159 kts | 298° |
| 2026-04-21 00:31 | 45.59261 | -122.61435 | 532 ft | 168 kts | 298° |
| 2026-04-21 00:32 | 45.59836 | -122.62804 | 1624 ft | 162 kts | 299° |
| 2026-04-21 00:32 | 45.60434 | -122.64226 | 2487 ft | 167 kts | 300° |
| 2026-04-21 00:32 | 45.61039 | -122.65745 | 3327 ft | 186 kts | 299° |
| 2026-04-21 00:32 | 45.61729 | -122.67467 | 3903 ft | 214 kts | 300° |
| 2026-04-21 00:33 | 45.62555 | -122.69445 | 4373 ft | 248 kts | 301° |
| 2026-04-21 00:33 | 45.63482 | -122.71612 | 5222 ft | 266 kts | 300° |
| 2026-04-21 00:33 | 45.64458 | -122.73954 | 6125 ft | 282 kts | 300° |
| 2026-04-21 00:33 | 45.65465 | -122.76412 | 7156 ft | 291 kts | 299° |
| 2026-04-21 00:34 | 45.66476 | -122.78906 | 8266 ft | 294 kts | 296° |
| 2026-04-21 00:34 | 45.67107 | -122.81673 | 9116 ft | 296 kts | 267° |
| 2026-04-21 00:34 | 45.66778 | -122.84512 | 10238 ft | 285 kts | 247° |
| 2026-04-21 00:34 | 45.66177 | -122.87234 | 11348 ft | 287 kts | 246° |
| 2026-04-21 00:35 | 45.65331 | -122.89743 | 12415 ft | 277 kts | 224° |
| 2026-04-21 00:35 | 45.63845 | -122.91371 | 13570 ft | 267 kts | 201° |
| 2026-04-21 00:35 | 45.62043 | -122.92065 | 14433 ft | 274 kts | 186° |
| 2026-04-21 00:35 | 45.60073 | -122.91940 | 14920 ft | 297 kts | 168° |
| 2026-04-21 00:36 | 45.57972 | -122.91056 | 14959 ft | 333 kts | 165° |
| 2026-04-21 00:36 | 45.55665 | -122.90031 | 14982 ft | 356 kts | 165° |
| 2026-04-21 00:36 | 45.53335 | -122.88783 | 14972 ft | 361 kts | 156° |
| 2026-04-21 00:36 | 45.51149 | -122.86955 | 14980 ft | 364 kts | 152° |
| 2026-04-21 00:37 | 45.48993 | -122.85048 | 15218 ft | 365 kts | 152° |
| 2026-04-21 00:37 | 45.46831 | -122.83138 | 16341 ft | 366 kts | 152° |
| 2026-04-21 00:37 | 45.44656 | -122.81233 | 17482 ft | 368 kts | 152° |
| 2026-04-21 00:37 | 45.42461 | -122.79327 | 18521 ft | 371 kts | 152° |
| 2026-04-21 00:38 | 45.40240 | -122.77412 | 19373 ft | 376 kts | 152° |
| 2026-04-21 00:38 | 45.37983 | -122.75477 | 20173 ft | 382 kts | 152° |
| 2026-04-21 00:38 | 45.35685 | -122.73512 | 20957 ft | 387 kts | 152° |
| 2026-04-21 00:38 | 45.33365 | -122.71533 | 21790 ft | 392 kts | 152° |
| 2026-04-21 00:39 | 45.31041 | -122.69552 | 22632 ft | 396 kts | 152° |
| 2026-04-21 00:39 | 45.28659 | -122.67524 | 23426 ft | 401 kts | 152° |
| 2026-04-21 00:39 | 45.26252 | -122.65477 | 24087 ft | 406 kts | 153° |
| 2026-04-21 00:39 | 45.23812 | -122.63405 | 24774 ft | 409 kts | 153° |
| 2026-04-21 00:40 | 45.21353 | -122.61319 | 25430 ft | 414 kts | 154° |
| 2026-04-21 00:40 | 45.18874 | -122.59218 | 26075 ft | 418 kts | 154° |
| 2026-04-21 00:40 | 45.16361 | -122.57091 | 26697 ft | 422 kts | 154° |
| 2026-04-21 00:40 | 45.13824 | -122.54946 | 27321 ft | 427 kts | 155° |
| 2026-04-21 00:41 | 45.11261 | -122.52780 | 27939 ft | 431 kts | 155° |
| 2026-04-21 00:41 | 45.08669 | -122.50592 | 28484 ft | 436 kts | 156° |
| 2026-04-21 00:41 | 45.06054 | -122.48387 | 28999 ft | 440 kts | 156° |
| 2026-04-21 00:41 | 45.03411 | -122.46158 | 29573 ft | 443 kts | 156° |
| 2026-04-21 00:42 | 45.00748 | -122.43914 | 30080 ft | 447 kts | 156° |
| 2026-04-21 00:42 | 44.98082 | -122.41670 | 30615 ft | 446 kts | 156° |
| 2026-04-21 00:42 | 44.95419 | -122.39445 | 31323 ft | 441 kts | 158° |
| 2026-04-21 00:42 | 44.92701 | -122.37668 | 31843 ft | 431 kts | 166° |
| 2026-04-21 00:43 | 44.89884 | -122.36290 | 32376 ft | 428 kts | 168° |
| 2026-04-21 00:43 | 44.87051 | -122.35044 | 32942 ft | 426 kts | 169° |
| 2026-04-21 00:43 | 44.84219 | -122.33839 | 33568 ft | 423 kts | 169° |
| 2026-04-21 00:43 | 44.81417 | -122.32618 | 34112 ft | 421 kts | 168° |
| 2026-04-21 00:44 | 44.78615 | -122.31381 | 34483 ft | 422 kts | 168° |
| 2026-04-21 00:44 | 44.75811 | -122.30116 | 34857 ft | 424 kts | 167° |
| 2026-04-21 00:44 | 44.73008 | -122.28822 | 35247 ft | 422 kts | 167° |
| 2026-04-21 00:45 | 44.67431 | -122.26224 | 36009 ft | 423 kts | 167° |
| 2026-04-21 00:45 | 44.64642 | -122.24916 | 36537 ft | 419 kts | 167° |
| 2026-04-21 00:45 | 44.61878 | -122.23638 | 37018 ft | 417 kts | 167° |
| 2026-04-21 00:45 | 44.59118 | -122.22367 | 37363 ft | 418 kts | 167° |
| 2026-04-21 00:46 | 44.56384 | -122.21102 | 37739 ft | 419 kts | 167° |
| 2026-04-21 00:46 | 44.53620 | -122.19807 | 38147 ft | 418 kts | 167° |
| 2026-04-21 00:46 | 44.50860 | -122.18531 | 38594 ft | 416 kts | 167° |
| 2026-04-21 00:46 | 44.48108 | -122.17268 | 38778 ft | 419 kts | 167° |
| 2026-04-21 00:47 | 44.42535 | -122.14711 | 39084 ft | 419 kts | 166° |
| 2026-04-21 00:47 | 44.39780 | -122.13450 | 39462 ft | 414 kts | 167° |
| 2026-04-21 00:47 | 44.37057 | -122.12195 | 39812 ft | 409 kts | 166° |
| 2026-04-21 00:48 | 44.34369 | -122.10957 | 40225 ft | 405 kts | 167° |
| 2026-04-21 00:48 | 44.31705 | -122.09739 | 40590 ft | 401 kts | 166° |
| 2026-04-21 00:48 | 44.29057 | -122.08528 | 40923 ft | 400 kts | 166° |
| 2026-04-21 00:48 | 44.26390 | -122.07314 | 40902 ft | 406 kts | 166° |
| 2026-04-21 00:49 | 44.20970 | -122.04844 | 40909 ft | 418 kts | 166° |
| 2026-04-21 00:49 | 44.15398 | -122.02298 | 40908 ft | 424 kts | 166° |
| 2026-04-21 00:50 | 44.09773 | -121.99742 | 40910 ft | 426 kts | 166° |
| 2026-04-21 00:50 | 44.04114 | -121.97174 | 40901 ft | 428 kts | 166° |
| 2026-04-21 00:51 | 43.98419 | -121.94592 | 40903 ft | 434 kts | 166° |
| 2026-04-21 00:51 | 43.92631 | -121.91975 | 40879 ft | 441 kts | 166° |
| 2026-04-21 00:52 | 43.86790 | -121.89339 | 40893 ft | 447 kts | 166° |
| 2026-04-21 00:52 | 43.80738 | -121.87442 | 40891 ft | 446 kts | 174° |
| 2026-04-21 00:53 | 43.74574 | -121.86272 | 40871 ft | 447 kts | 175° |
| 2026-04-21 00:53 | 43.68441 | -121.85120 | 40870 ft | 437 kts | 174° |
| 2026-04-21 00:54 | 43.62476 | -121.83916 | 40896 ft | 431 kts | 174° |
| 2026-04-21 00:54 | 43.56556 | -121.82684 | 40883 ft | 429 kts | 174° |
| 2026-04-21 00:55 | 43.50685 | -121.81450 | 40887 ft | 428 kts | 174° |
| 2026-04-21 00:55 | 43.44801 | -121.80217 | 40883 ft | 427 kts | 174° |
| 2026-04-21 00:56 | 43.38929 | -121.78990 | 40887 ft | 426 kts | 174° |
| 2026-04-21 00:56 | 43.33057 | -121.77767 | 40886 ft | 426 kts | 174° |
| 2026-04-21 00:57 | 43.27186 | -121.76546 | 40891 ft | 427 kts | 174° |
| 2026-04-21 00:57 | 43.21297 | -121.75324 | 40916 ft | 428 kts | 174° |
| 2026-04-21 00:58 | 43.15394 | -121.74102 | 40881 ft | 430 kts | 173° |
| 2026-04-21 00:58 | 43.09462 | -121.72875 | 40889 ft | 431 kts | 173° |
| 2026-04-21 00:59 | 43.03551 | -121.71655 | 40893 ft | 433 kts | 173° |
| 2026-04-21 00:59 | 42.97586 | -121.70426 | 40883 ft | 434 kts | 173° |
| 2026-04-21 01:00 | 42.91611 | -121.69198 | 40868 ft | 434 kts | 173° |
| 2026-04-21 01:00 | 42.85624 | -121.67969 | 40882 ft | 434 kts | 173° |
| 2026-04-21 01:01 | 42.79645 | -121.66744 | 40894 ft | 435 kts | 173° |
| 2026-04-21 01:01 | 42.73657 | -121.65521 | 40866 ft | 434 kts | 173° |
| 2026-04-21 01:02 | 42.67733 | -121.64312 | 40870 ft | 433 kts | 173° |
| 2026-04-21 01:02 | 42.61785 | -121.63101 | 40865 ft | 432 kts | 173° |
| 2026-04-21 01:03 | 42.55843 | -121.61894 | 40859 ft | 430 kts | 173° |
| 2026-04-21 01:03 | 42.49924 | -121.60694 | 40862 ft | 429 kts | 173° |
| 2026-04-21 01:04 | 42.44022 | -121.59499 | 40866 ft | 428 kts | 173° |
| 2026-04-21 01:04 | 42.38127 | -121.58309 | 40868 ft | 428 kts | 173° |
| 2026-04-21 01:05 | 42.32233 | -121.57120 | 40869 ft | 427 kts | 173° |
| 2026-04-21 01:05 | 42.26383 | -121.55944 | 40861 ft | 428 kts | 173° |
| 2026-04-21 01:06 | 42.20493 | -121.54760 | 40862 ft | 427 kts | 173° |
| 2026-04-21 01:06 | 42.14614 | -121.53582 | 40939 ft | 427 kts | 173° |
| 2026-04-21 01:07 | 42.08754 | -121.52409 | 40928 ft | 427 kts | 173° |
| 2026-04-21 01:07 | 42.02870 | -121.51233 | 40924 ft | 427 kts | 173° |
| 2026-04-21 01:08 | 41.96987 | -121.50061 | 40906 ft | 427 kts | 173° |
| 2026-04-21 01:08 | 41.91098 | -121.48889 | 40888 ft | 427 kts | 173° |
| 2026-04-21 01:09 | 41.85230 | -121.47723 | 40881 ft | 426 kts | 173° |
| 2026-04-21 01:09 | 41.79354 | -121.46558 | 40854 ft | 425 kts | 174° |
| 2026-04-21 01:10 | 41.73498 | -121.45399 | 40884 ft | 425 kts | 174° |
| 2026-04-21 01:10 | 41.67682 | -121.44250 | 40893 ft | 425 kts | 174° |
| 2026-04-21 01:11 | 41.61826 | -121.43096 | 40885 ft | 426 kts | 173° |
| 2026-04-21 01:11 | 41.55946 | -121.41939 | 40909 ft | 427 kts | 174° |
| 2026-04-21 01:12 | 41.50042 | -121.40780 | 40909 ft | 429 kts | 173° |
| 2026-04-21 01:12 | 41.45115 | -121.39814 | 40904 ft | 431 kts | 173° |
| 2026-04-21 01:13 | 41.39174 | -121.38651 | 40911 ft | 432 kts | 173° |
| 2026-04-21 01:13 | 41.33208 | -121.37485 | 40894 ft | 434 kts | 173° |
| 2026-04-21 01:14 | 41.27225 | -121.36318 | 40919 ft | 435 kts | 174° |
| 2026-04-21 01:14 | 41.21226 | -121.35150 | 40908 ft | 435 kts | 173° |
| 2026-04-21 01:15 | 41.15262 | -121.33989 | 40919 ft | 436 kts | 173° |
| 2026-04-21 01:15 | 41.09266 | -121.32827 | 40917 ft | 435 kts | 174° |
| 2026-04-21 01:16 | 41.03278 | -121.31667 | 40912 ft | 434 kts | 174° |
| 2026-04-21 01:16 | 40.97319 | -121.30515 | 40904 ft | 432 kts | 174° |
| 2026-04-21 01:17 | 40.91375 | -121.29369 | 40907 ft | 430 kts | 174° |
| 2026-04-21 01:17 | 40.85474 | -121.28231 | 40940 ft | 427 kts | 174° |
| 2026-04-21 01:18 | 40.79633 | -121.27109 | 40932 ft | 426 kts | 174° |
| 2026-04-21 01:18 | 40.73770 | -121.25984 | 40942 ft | 425 kts | 174° |
| 2026-04-21 01:19 | 40.67924 | -121.24865 | 40949 ft | 424 kts | 174° |
| 2026-04-21 01:19 | 40.62090 | -121.23750 | 40949 ft | 424 kts | 174° |
| 2026-04-21 01:20 | 40.56230 | -121.22632 | 40977 ft | 425 kts | 174° |
| 2026-04-21 01:20 | 40.50403 | -121.21522 | 40973 ft | 426 kts | 174° |
| 2026-04-21 01:21 | 40.44518 | -121.20403 | 40990 ft | 428 kts | 174° |
| 2026-04-21 01:21 | 40.38615 | -121.19282 | 40997 ft | 429 kts | 174° |
| 2026-04-21 01:22 | 40.32682 | -121.18158 | 40976 ft | 431 kts | 174° |
| 2026-04-21 01:22 | 40.26723 | -121.17031 | 40978 ft | 432 kts | 174° |
| 2026-04-21 01:23 | 40.20778 | -121.15908 | 40992 ft | 432 kts | 174° |
| 2026-04-21 01:23 | 40.14823 | -121.14785 | 40994 ft | 432 kts | 174° |
| 2026-04-21 01:24 | 40.08872 | -121.13665 | 40990 ft | 432 kts | 174° |
| 2026-04-21 01:24 | 40.02966 | -121.12556 | 40995 ft | 431 kts | 174° |
| 2026-04-21 01:25 | 39.97026 | -121.11442 | 40985 ft | 430 kts | 174° |
| 2026-04-21 01:25 | 39.91092 | -121.10331 | 40990 ft | 430 kts | 174° |
| 2026-04-21 01:26 | 39.85201 | -121.09230 | 41002 ft | 430 kts | 174° |
| 2026-04-21 01:26 | 39.79275 | -121.08125 | 40988 ft | 429 kts | 173° |
| 2026-04-21 01:27 | 39.73365 | -121.07025 | 40975 ft | 430 kts | 173° |
| 2026-04-21 01:27 | 39.67433 | -121.05924 | 40978 ft | 431 kts | 173° |
| 2026-04-21 01:28 | 39.61479 | -121.04818 | 40979 ft | 433 kts | 173° |
| 2026-04-21 01:28 | 39.55533 | -121.03717 | 40984 ft | 435 kts | 173° |
| 2026-04-21 01:29 | 39.49529 | -121.02606 | 40980 ft | 436 kts | 173° |
| 2026-04-21 01:29 | 39.43503 | -121.01493 | 40975 ft | 437 kts | 174° |
| 2026-04-21 01:30 | 39.37480 | -121.00382 | 40968 ft | 437 kts | 174° |
| 2026-04-21 01:30 | 39.31456 | -120.99274 | 40979 ft | 436 kts | 174° |
| 2026-04-21 01:31 | 39.25446 | -120.98171 | 40969 ft | 435 kts | 174° |
| 2026-04-21 01:31 | 39.19494 | -120.97079 | 40970 ft | 434 kts | 174° |
| 2026-04-21 01:32 | 39.13510 | -120.95985 | 40969 ft | 433 kts | 174° |
| 2026-04-21 01:32 | 39.07545 | -120.94896 | 40955 ft | 432 kts | 174° |
| 2026-04-21 01:33 | 39.01585 | -120.93808 | 40964 ft | 432 kts | 174° |
| 2026-04-21 01:33 | 38.95631 | -120.92723 | 40969 ft | 432 kts | 174° |
| 2026-04-21 01:34 | 38.89673 | -120.91640 | 40962 ft | 433 kts | 174° |
| 2026-04-21 01:34 | 38.83697 | -120.90556 | 40967 ft | 434 kts | 174° |
| 2026-04-21 01:35 | 38.77712 | -120.89474 | 40968 ft | 435 kts | 174° |
| 2026-04-21 01:35 | 38.71719 | -120.88390 | 40975 ft | 435 kts | 174° |
| 2026-04-21 01:36 | 38.65714 | -120.87305 | 40950 ft | 436 kts | 174° |
| 2026-04-21 01:36 | 38.59693 | -120.86220 | 40947 ft | 437 kts | 174° |
| 2026-04-21 01:37 | 38.53703 | -120.85143 | 40944 ft | 438 kts | 174° |
| 2026-04-21 01:37 | 38.47669 | -120.84057 | 40946 ft | 438 kts | 174° |
| 2026-04-21 01:38 | 38.41628 | -120.82976 | 40946 ft | 438 kts | 174° |
| 2026-04-21 01:38 | 38.35583 | -120.81894 | 40945 ft | 438 kts | 174° |
| 2026-04-21 01:39 | 38.29543 | -120.80814 | 40935 ft | 438 kts | 175° |
| 2026-04-21 01:39 | 38.23500 | -120.79735 | 40944 ft | 438 kts | 175° |
| 2026-04-21 01:40 | 38.17463 | -120.78660 | 40927 ft | 438 kts | 175° |
| 2026-04-21 01:40 | 38.11418 | -120.77585 | 40930 ft | 438 kts | 175° |
| 2026-04-21 01:41 | 38.05424 | -120.76521 | 40928 ft | 438 kts | 175° |
| 2026-04-21 01:41 | 37.99385 | -120.75451 | 40926 ft | 438 kts | 175° |
| 2026-04-21 01:42 | 37.93344 | -120.74382 | 40915 ft | 438 kts | 175° |
| 2026-04-21 01:42 | 37.87306 | -120.73316 | 40915 ft | 438 kts | 175° |
| 2026-04-21 01:43 | 37.81268 | -120.72250 | 40905 ft | 437 kts | 175° |
| 2026-04-21 01:43 | 37.75271 | -120.71195 | 40902 ft | 437 kts | 175° |
| 2026-04-21 01:44 | 37.69241 | -120.70135 | 40894 ft | 437 kts | 175° |
| 2026-04-21 01:44 | 37.63212 | -120.69077 | 40902 ft | 437 kts | 175° |
| 2026-04-21 01:45 | 37.57181 | -120.68021 | 40899 ft | 437 kts | 175° |
| 2026-04-21 01:45 | 37.51152 | -120.66966 | 40895 ft | 437 kts | 176° |
| 2026-04-21 01:46 | 37.45124 | -120.65913 | 40895 ft | 438 kts | 176° |
| 2026-04-21 01:46 | 37.39124 | -120.64866 | 40893 ft | 438 kts | 176° |
| 2026-04-21 01:47 | 37.33089 | -120.63777 | 40886 ft | 439 kts | 174° |
| 2026-04-21 01:47 | 37.27126 | -120.61944 | 40884 ft | 441 kts | 169° |
| 2026-04-21 01:48 | 37.21187 | -120.59982 | 40898 ft | 442 kts | 170° |
| 2026-04-21 01:48 | 37.15238 | -120.58035 | 40899 ft | 442 kts | 170° |
| 2026-04-21 01:49 | 37.09312 | -120.56112 | 40899 ft | 442 kts | 170° |
| 2026-04-21 01:49 | 37.03357 | -120.54187 | 40902 ft | 442 kts | 170° |
| 2026-04-21 01:50 | 36.97385 | -120.52260 | 40905 ft | 443 kts | 170° |
| 2026-04-21 01:50 | 36.91404 | -120.50332 | 40900 ft | 443 kts | 170° |
| 2026-04-21 01:51 | 36.85419 | -120.48407 | 40900 ft | 444 kts | 170° |
| 2026-04-21 01:51 | 36.79433 | -120.46484 | 40900 ft | 444 kts | 170° |
| 2026-04-21 01:52 | 36.70457 | -120.43605 | 40905 ft | 443 kts | 171° |
| 2026-04-21 01:53 | 36.64520 | -120.41706 | 40908 ft | 443 kts | 171° |
| 2026-04-21 01:53 | 36.58543 | -120.39797 | 40884 ft | 443 kts | 169° |
| 2026-04-21 01:54 | 36.52578 | -120.37892 | 40907 ft | 442 kts | 170° |
| 2026-04-21 01:54 | 36.46613 | -120.35994 | 40914 ft | 442 kts | 170° |
| 2026-04-21 01:55 | 36.40649 | -120.34099 | 40917 ft | 442 kts | 170° |
| 2026-04-21 01:55 | 36.34687 | -120.32207 | 40915 ft | 442 kts | 170° |
| 2026-04-21 01:56 | 36.28731 | -120.30319 | 40936 ft | 442 kts | 170° |
| 2026-04-21 01:56 | 36.22806 | -120.28444 | 40931 ft | 442 kts | 170° |
| 2026-04-21 01:57 | 36.16841 | -120.26560 | 40914 ft | 442 kts | 170° |
| 2026-04-21 01:57 | 36.10871 | -120.24677 | 40948 ft | 443 kts | 170° |
| 2026-04-21 01:58 | 36.04885 | -120.22791 | 40963 ft | 444 kts | 170° |
| 2026-04-21 01:58 | 35.98888 | -120.20906 | 40960 ft | 445 kts | 170° |
| 2026-04-21 01:59 | 35.92920 | -120.19031 | 40968 ft | 446 kts | 171° |
| 2026-04-21 01:59 | 35.86908 | -120.17147 | 40986 ft | 446 kts | 171° |
| 2026-04-21 02:00 | 35.80882 | -120.15260 | 40967 ft | 447 kts | 171° |
| 2026-04-21 02:00 | 35.75837 | -120.13682 | 40954 ft | 444 kts | 171° |
| 2026-04-21 02:00 | 35.72842 | -120.12747 | 40804 ft | 445 kts | 171° |
| 2026-04-21 02:01 | 35.69879 | -120.11823 | 40543 ft | 443 kts | 171° |
| 2026-04-21 02:01 | 35.66910 | -120.10838 | 40252 ft | 440 kts | 166° |
| 2026-04-21 02:01 | 35.64146 | -120.09198 | 39978 ft | 444 kts | 153° |
| 2026-04-21 02:01 | 35.61540 | -120.07157 | 39784 ft | 441 kts | 153° |
| 2026-04-21 02:02 | 35.58959 | -120.05128 | 39520 ft | 439 kts | 153° |
| 2026-04-21 02:02 | 35.56378 | -120.03122 | 39279 ft | 436 kts | 154° |
| 2026-04-21 02:02 | 35.53812 | -120.01154 | 39060 ft | 434 kts | 154° |
| 2026-04-21 02:02 | 35.51248 | -119.99209 | 38836 ft | 432 kts | 154° |
| 2026-04-21 02:03 | 35.48687 | -119.97279 | 38597 ft | 430 kts | 155° |
| 2026-04-21 02:03 | 35.46140 | -119.95364 | 38322 ft | 429 kts | 155° |
| 2026-04-21 02:03 | 35.43599 | -119.93457 | 38019 ft | 427 kts | 155° |
| 2026-04-21 02:03 | 35.41100 | -119.91581 | 37744 ft | 425 kts | 155° |
| 2026-04-21 02:04 | 35.38585 | -119.89693 | 37473 ft | 423 kts | 155° |
| 2026-04-21 02:04 | 35.36732 | -119.88303 | 37272 ft | 422 kts | 155° |
| 2026-04-21 02:04 | 35.34235 | -119.86431 | 36999 ft | 421 kts | 155° |
| 2026-04-21 02:04 | 35.31737 | -119.84559 | 36753 ft | 420 kts | 155° |
| 2026-04-21 02:05 | 35.29248 | -119.82696 | 36457 ft | 418 kts | 155° |
| 2026-04-21 02:05 | 35.26825 | -119.80702 | 36328 ft | 423 kts | 150° |
| 2026-04-21 02:05 | 35.24446 | -119.78505 | 36372 ft | 434 kts | 148° |
| 2026-04-21 02:05 | 35.22036 | -119.76196 | 36381 ft | 445 kts | 148° |
| 2026-04-21 02:06 | 35.19578 | -119.73831 | 36379 ft | 455 kts | 148° |
| 2026-04-21 02:06 | 35.14522 | -119.69027 | 36364 ft | 467 kts | 148° |
| 2026-04-21 02:06 | 35.11945 | -119.66607 | 35970 ft | 471 kts | 149° |
| 2026-04-21 02:07 | 35.09332 | -119.64168 | 34908 ft | 468 kts | 149° |
| 2026-04-21 02:07 | 35.06784 | -119.61787 | 33986 ft | 456 kts | 149° |
| 2026-04-21 02:07 | 35.04286 | -119.59459 | 32871 ft | 448 kts | 149° |
| 2026-04-21 02:07 | 35.01823 | -119.57173 | 31847 ft | 445 kts | 149° |
| 2026-04-21 02:08 | 34.99321 | -119.54861 | 30845 ft | 458 kts | 149° |
| 2026-04-21 02:08 | 34.96741 | -119.52479 | 30087 ft | 473 kts | 148° |
| 2026-04-21 02:08 | 34.94085 | -119.50018 | 29148 ft | 480 kts | 148° |
| 2026-04-21 02:08 | 34.91440 | -119.47560 | 28337 ft | 476 kts | 148° |
| 2026-04-21 02:09 | 34.88808 | -119.45156 | 27559 ft | 470 kts | 149° |
| 2026-04-21 02:09 | 34.86239 | -119.42853 | 26800 ft | 447 kts | 149° |
| 2026-04-21 02:09 | 34.83796 | -119.40677 | 26215 ft | 423 kts | 149° |
| 2026-04-21 02:09 | 34.81469 | -119.38607 | 25570 ft | 404 kts | 149° |
| 2026-04-21 02:10 | 34.79229 | -119.36614 | 24904 ft | 398 kts | 149° |
| 2026-04-21 02:10 | 34.77034 | -119.34662 | 24508 ft | 394 kts | 149° |
| 2026-04-21 02:10 | 34.74846 | -119.32712 | 24187 ft | 387 kts | 149° |
| 2026-04-21 02:10 | 34.72680 | -119.30804 | 23815 ft | 382 kts | 150° |
| 2026-04-21 02:11 | 34.70526 | -119.28927 | 23388 ft | 379 kts | 150° |
| 2026-04-21 02:11 | 34.68389 | -119.27065 | 22886 ft | 377 kts | 150° |
| 2026-04-21 02:11 | 34.66260 | -119.25209 | 22440 ft | 374 kts | 150° |
| 2026-04-21 02:11 | 34.64159 | -119.23379 | 21994 ft | 370 kts | 150° |
| 2026-04-21 02:12 | 34.62062 | -119.21568 | 21529 ft | 367 kts | 150° |
| 2026-04-21 02:12 | 34.60011 | -119.19804 | 21091 ft | 365 kts | 150° |
| 2026-04-21 02:12 | 34.57942 | -119.18024 | 20641 ft | 363 kts | 150° |
| 2026-04-21 02:12 | 34.55895 | -119.16257 | 20199 ft | 360 kts | 150° |
| 2026-04-21 02:13 | 34.53869 | -119.14471 | 19743 ft | 359 kts | 149° |
| 2026-04-21 02:13 | 34.51865 | -119.12686 | 19348 ft | 355 kts | 149° |
| 2026-04-21 02:13 | 34.49879 | -119.10921 | 18919 ft | 352 kts | 149° |
| 2026-04-21 02:13 | 34.47900 | -119.09166 | 18430 ft | 353 kts | 149° |
| 2026-04-21 02:14 | 34.45914 | -119.07412 | 17936 ft | 352 kts | 149° |
| 2026-04-21 02:14 | 34.43944 | -119.05672 | 17484 ft | 349 kts | 149° |
| 2026-04-21 02:14 | 34.41975 | -119.03958 | 17014 ft | 347 kts | 150° |
| 2026-04-21 02:14 | 34.40022 | -119.02271 | 16610 ft | 342 kts | 150° |
| 2026-04-21 02:15 | 34.38091 | -119.00605 | 16148 ft | 340 kts | 150° |
| 2026-04-21 02:15 | 34.36167 | -118.98941 | 15655 ft | 338 kts | 149° |
| 2026-04-21 02:15 | 34.34281 | -118.97309 | 15199 ft | 337 kts | 149° |
| 2026-04-21 02:15 | 34.32401 | -118.95627 | 14719 ft | 336 kts | 148° |
| 2026-04-21 02:16 | 34.30538 | -118.93925 | 14219 ft | 335 kts | 148° |
| 2026-04-21 02:16 | 34.28679 | -118.92229 | 13746 ft | 334 kts | 148° |
| 2026-04-21 02:16 | 34.26828 | -118.90548 | 13272 ft | 331 kts | 148° |
| 2026-04-21 02:16 | 34.24998 | -118.88886 | 12795 ft | 328 kts | 147° |
| 2026-04-21 02:17 | 34.23192 | -118.87227 | 12331 ft | 325 kts | 147° |
| 2026-04-21 02:17 | 34.21416 | -118.85590 | 12132 ft | 314 kts | 147° |
| 2026-04-21 02:17 | 34.19713 | -118.84020 | 12046 ft | 300 kts | 147° |
| 2026-04-21 02:17 | 34.18091 | -118.82529 | 11987 ft | 288 kts | 147° |
| 2026-04-21 02:18 | 34.16501 | -118.81068 | 11987 ft | 287 kts | 147° |
| 2026-04-21 02:18 | 34.14974 | -118.79514 | 11836 ft | 288 kts | 143° |
| 2026-04-21 02:18 | 34.13498 | -118.77888 | 11498 ft | 286 kts | 142° |
| 2026-04-21 02:18 | 34.12035 | -118.76261 | 11089 ft | 285 kts | 142° |
| 2026-04-21 02:19 | 34.10567 | -118.74642 | 10704 ft | 284 kts | 142° |
| 2026-04-21 02:19 | 34.09127 | -118.73065 | 10331 ft | 282 kts | 142° |
| 2026-04-21 02:19 | 34.07690 | -118.71503 | 10092 ft | 274 kts | 141° |
| 2026-04-21 02:19 | 34.06288 | -118.69976 | 9812 ft | 269 kts | 142° |
| 2026-04-21 02:20 | 34.04915 | -118.68478 | 9485 ft | 265 kts | 141° |
| 2026-04-21 02:20 | 34.03588 | -118.66938 | 9081 ft | 265 kts | 130° |
| 2026-04-21 02:20 | 34.02800 | -118.64876 | 8960 ft | 279 kts | 106° |
| 2026-04-21 02:20 | 34.02562 | -118.62531 | 8655 ft | 283 kts | 99° |
| 2026-04-21 02:21 | 34.02366 | -118.60194 | 8395 ft | 276 kts | 100° |
| 2026-04-21 02:21 | 34.02159 | -118.57907 | 8065 ft | 273 kts | 100° |
| 2026-04-21 02:21 | 34.01946 | -118.55627 | 8021 ft | 276 kts | 100° |
| 2026-04-21 02:21 | 34.01733 | -118.53328 | 7929 ft | 276 kts | 100° |
| 2026-04-21 02:22 | 34.01519 | -118.51030 | 7680 ft | 274 kts | 100° |
| 2026-04-21 02:22 | 34.01307 | -118.48773 | 7362 ft | 270 kts | 100° |
| 2026-04-21 02:22 | 34.01100 | -118.46565 | 7153 ft | 255 kts | 99° |
| 2026-04-21 02:22 | 34.01125 | -118.44516 | 6961 ft | 245 kts | 83° |
| 2026-04-21 02:23 | 34.01477 | -118.42529 | 6712 ft | 241 kts | 80° |
| 2026-04-21 02:23 | 34.01852 | -118.40574 | 6396 ft | 238 kts | 80° |
| 2026-04-21 02:23 | 34.02208 | -118.38634 | 6062 ft | 235 kts | 81° |
| 2026-04-21 02:23 | 34.02551 | -118.36701 | 6017 ft | 238 kts | 81° |
| 2026-04-21 02:24 | 34.02868 | -118.34739 | 6001 ft | 237 kts | 85° |
| 2026-04-21 02:24 | 34.03070 | -118.32784 | 5993 ft | 233 kts | 87° |
| 2026-04-21 02:24 | 34.03255 | -118.30848 | 5996 ft | 232 kts | 86° |
| 2026-04-21 02:24 | 34.03469 | -118.28905 | 5854 ft | 237 kts | 83° |
| 2026-04-21 02:25 | 34.03748 | -118.26951 | 5541 ft | 235 kts | 83° |
| 2026-04-21 02:25 | 34.04044 | -118.25026 | 5252 ft | 234 kts | 82° |
| 2026-04-21 02:25 | 34.04337 | -118.23101 | 4952 ft | 230 kts | 81° |
| 2026-04-21 02:25 | 34.04602 | -118.21242 | 4650 ft | 226 kts | 83° |
| 2026-04-21 02:26 | 34.04860 | -118.19383 | 4328 ft | 223 kts | 82° |
| 2026-04-21 02:26 | 34.05108 | -118.17550 | 4077 ft | 219 kts | 82° |
| 2026-04-21 02:26 | 34.05339 | -118.15748 | 4032 ft | 221 kts | 82° |
| 2026-04-21 02:26 | 34.05570 | -118.13881 | 3989 ft | 227 kts | 84° |
| 2026-04-21 02:27 | 34.05385 | -118.12019 | 3994 ft | 225 kts | 117° |
| 2026-04-21 02:27 | 34.04401 | -118.10603 | 4005 ft | 222 kts | 150° |
| 2026-04-21 02:27 | 34.02997 | -118.09863 | 3998 ft | 221 kts | 161° |
| 2026-04-21 02:27 | 34.01538 | -118.09229 | 4003 ft | 225 kts | 161° |
| 2026-04-21 02:28 | 34.00060 | -118.08612 | 3987 ft | 222 kts | 167° |
| 2026-04-21 02:28 | 33.98550 | -118.08640 | 3940 ft | 220 kts | 199° |
| 2026-04-21 02:28 | 33.97270 | -118.09662 | 3689 ft | 225 kts | 227° |
| 2026-04-21 02:28 | 33.96442 | -118.11234 | 3388 ft | 224 kts | 253° |
| 2026-04-21 02:29 | 33.96273 | -118.13056 | 3110 ft | 213 kts | 266° |
| 2026-04-21 02:29 | 33.96140 | -118.14732 | 3071 ft | 196 kts | 262° |
| 2026-04-21 02:29 | 33.95974 | -118.16316 | 2994 ft | 189 kts | 262° |
| 2026-04-21 02:29 | 33.95807 | -118.17928 | 3014 ft | 197 kts | 262° |
| 2026-04-21 02:30 | 33.95643 | -118.19538 | 2990 ft | 190 kts | 262° |
| 2026-04-21 02:30 | 33.95482 | -118.21122 | 2923 ft | 193 kts | 262° |
| 2026-04-21 02:30 | 33.95318 | -118.22738 | 2653 ft | 192 kts | 262° |
| 2026-04-21 02:30 | 33.95159 | -118.24301 | 2414 ft | 185 kts | 262° |
| 2026-04-21 02:31 | 33.95008 | -118.25792 | 2149 ft | 172 kts | 262° |
| 2026-04-21 02:31 | 33.94871 | -118.27140 | 1940 ft | 154 kts | 262° |
| 2026-04-21 02:31 | 33.94747 | -118.28356 | 1731 ft | 143 kts | 261° |
| 2026-04-21 02:31 | 33.94624 | -118.29560 | 1581 ft | 145 kts | 261° |
| 2026-04-21 02:32 | 33.94503 | -118.30746 | 1363 ft | 140 kts | 262° |
| 2026-04-21 02:32 | 33.94386 | -118.31892 | 1165 ft | 136 kts | 261° |
| 2026-04-21 02:32 | 33.94275 | -118.32991 | 1004 ft | 133 kts | 263° |
| 2026-04-21 02:32 | 33.94162 | -118.34086 | 832 ft | 134 kts | 262° |
| 2026-04-21 02:33 | 33.94048 | -118.35208 | 633 ft | 133 kts | 263° |
| 2026-04-21 02:33 | 33.93935 | -118.36320 | 459 ft | 134 kts | 262° |
| 2026-04-21 02:33 | 33.93823 | -118.37431 | 306 ft | 130 kts | 262° |
| 2026-04-21 02:33 | 33.93715 | -118.38495 | 147 ft | 124 kts | 263° |
| 2026-04-21 02:34 | 33.93617 | -118.39430 | 126 ft | 98 kts | 263° |
| 2026-04-21 02:34 | 33.93551 | -118.40069 | 128 ft | 57 kts | 262° |
| 2026-04-21 02:34 | 33.93536 | -118.40448 | 127 ft | 38 kts | 283° |
| 2026-04-21 02:34 | 33.93594 | -118.40673 | 130 ft | 20 kts | 274° |
| 2026-04-21 02:35 | 33.93591 | -118.40783 | 130 ft | 11 kts | 278° |
| 2026-04-21 02:35 | 33.93601 | -118.40833 | 126 ft | 4 kts | 287° |
| 2026-04-21 02:35 | 33.93628 | -118.40874 | 129 ft | 18 kts | 322° |
| 2026-04-21 02:35 | 33.93756 | -118.40909 | 128 ft | 6 kts | 355° |
| 2026-04-21 02:36 | 33.93809 | -118.40916 | 126 ft | 0 kts | 353° |
| 2026-04-21 02:37 | 33.93824 | -118.40917 | 126 ft | 11 kts | 1° |
| 2026-04-21 02:37 | 33.93870 | -118.40835 | 126 ft | 14 kts | 76° |
| 2026-04-21 02:38 | 33.93887 | -118.40719 | 129 ft | 15 kts | 83° |
| 2026-04-21 02:38 | 33.93901 | -118.40592 | 127 ft | 16 kts | 82° |
| 2026-04-21 02:38 | 33.93916 | -118.40459 | 130 ft | 17 kts | 83° |
| 2026-04-21 02:38 | 33.93926 | -118.40344 | 125 ft | 11 kts | 83° |
| 2026-04-21 02:39 | 33.93936 | -118.40247 | 127 ft | 12 kts | 83° |
| 2026-04-21 02:39 | 33.93946 | -118.40138 | 129 ft | 14 kts | 83° |
| 2026-04-21 02:39 | 33.93965 | -118.40041 | 127 ft | 9 kts | 59° |
| 2026-04-21 02:39 | 33.94019 | -118.39998 | 125 ft | 10 kts | 28° |
| 2026-04-21 02:40 | 33.94028 | -118.39993 | 126 ft | 0 kts | 28° |